www.bettendroffer.lu
Wetterdaten: Woche 14.02.11 - 20.02.11 (KW7)
Datum Zeit Temp. 1 ext. Temp. 3 Feuchte 1 Feuchte 3 Luftdruck Regen Wind Richtung Taupunkt Windchill
14.02.2011 00:00 1,9 C 1,5 C 57 % 70 % 1001 hPa 0,0 l/m 0,0 km/h (0 Bft) - - -5,7 C 1,9 C
14.02.2011 01:00 1,7 C 1,3 C 60 % 72 % 1001 hPa 0,0 l/m 0,0 km/h (0 Bft) - - -5,4 C 1,7 C
14.02.2011 02:00 1,6 C 1,0 C 61 % 72 % 1000 hPa 0,0 l/m 0,0 km/h (0 Bft) - - -5,1 C 1,6 C
14.02.2011 03:00 0,9 C 0,3 C 60 % 73 % 1000 hPa 49,7 l/m 0,0 km/h (0 Bft) - - -6,0 C 0,9 C
14.02.2011 04:00 0,1 C -0,4 C 62 % 73 % 1000 hPa 276,5 l/m 0,0 km/h (0 Bft) - - -6,3 C 0,1 C
14.02.2011 05:00 -0,6 C -1,0 C 64 % 73 % 1000 hPa 0,0 l/m 0,0 km/h (0 Bft) - - -6,7 C -0,6 C
14.02.2011 06:00 -0,7 C -1,0 C 67 % 75 % 1000 hPa 0,0 l/m 0,0 km/h (0 Bft) - - -6,1 C -0,7 C
14.02.2011 07:00 -0,6 C -1,0 C 70 % 77 % 1000 hPa 0,0 l/m 0,0 km/h (0 Bft) - - -5,5 C -0,6 C
14.02.2011 08:00 -0,7 C -1,0 C 71 % 78 % 1001 hPa 0,0 l/m 0,0 km/h (0 Bft) - - -5,3 C -0,7 C
14.02.2011 09:00 0,7 C 1,1 C 74 % 82 % 1001 hPa 0,0 l/m 0,0 km/h (0 Bft) - - -3,4 C 0,7 C
14.02.2011 10:00 2,6 C 2,9 C 72 % 79 % 1001 hPa 0,0 l/m 0,0 km/h (0 Bft) - - -2,0 C 2,6 C
14.02.2011 11:00 4,6 C 4,6 C 61 % 72 % 1001 hPa 0,0 l/m 0,0 km/h (0 Bft) - - -2,2 C 4,6 C
14.02.2011 12:00 6,9 C 7,5 C 47 % 54 % 1001 hPa 0,0 l/m 0,0 km/h (0 Bft) - - -3,6 C 6,9 C
14.02.2011 13:00 8,4 C 8,9 C 37 % 48 % 1000 hPa 0,0 l/m 0,0 km/h (0 Bft) - - -5,7 C 8,4 C
14.02.2011 14:00 8,9 C 9,3 C 34 % 46 % 1000 hPa 0,0 l/m 0,0 km/h (0 Bft) - - -6,2 C 8,9 C
14.02.2011 15:00 9,6 C 10,0 C 28 % 39 % 999 hPa 0,0 l/m 0,0 km/h (0 Bft) - - -8,4 C 9,6 C
14.02.2011 16:00 8,5 C 8,3 C 36 % 47 % 999 hPa 0,0 l/m 0,0 km/h (0 Bft) - - -5,9 C 8,5 C
14.02.2011 17:00 8,0 C 7,6 C 39 % 54 % 998 hPa 0,0 l/m 0,0 km/h (0 Bft) - - -5,1 C 8,0 C
14.02.2011 18:00 6,8 C 6,7 C 44 % 58 % 999 hPa 1,1 l/m 0,0 km/h (0 Bft) - - -4,6 C 6,8 C
14.02.2011 19:00 6,4 C 6,3 C 57 % 63 % 999 hPa 2,5 l/m 0,0 km/h (0 Bft) - - -1,6 C 6,4 C
14.02.2011 20:00 6,0 C 5,9 C 68 % 68 % 999 hPa 1,1 l/m 0,0 km/h (0 Bft) - - 0,5 C 6,0 C
14.02.2011 21:00 5,6 C 5,4 C 74 % 73 % 999 hPa 1,1 l/m 0,0 km/h (0 Bft) - - 1,3 C 5,6 C
14.02.2011 22:00 4,6 C 4,5 C 75 % 77 % 999 hPa 1,1 l/m 0,0 km/h (0 Bft) - - 0,5 C 4,6 C
14.02.2011 23:00 4,1 C 4,0 C 76 % 78 % 999 hPa 0,7 l/m 0,0 km/h (0 Bft) - - 0,2 C 4,1 C
15.02.2011 00:00 3,8 C 3,7 C 78 % 79 % 999 hPa 0,0 l/m 0,0 km/h (0 Bft) - - 0,3 C 3,8 C
15.02.2011 01:00 3,5 C 3,3 C 78 % 79 % 998 hPa 0,0 l/m 0,0 km/h (0 Bft) - - -0,1 C 3,5 C
15.02.2011 02:00 2,5 C 2,1 C 76 % 80 % 998 hPa 0,0 l/m 0,0 km/h (0 Bft) - - -1,3 C 2,5 C
15.02.2011 03:00 2,7 C 2,5 C 80 % 81 % 997 hPa 0,0 l/m 0,0 km/h (0 Bft) - - -0,5 C 2,7 C
15.02.2011 04:00 2,8 C 2,7 C 81 % 81 % 997 hPa 0,0 l/m 0,0 km/h (0 Bft) - - -0,1 C 2,8 C
15.02.2011 05:00 3,0 C 2,8 C 81 % 81 % 996 hPa 0,0 l/m 0,0 km/h (0 Bft) - - -0,1 C 3,0 C
15.02.2011 06:00 3,0 C 2,9 C 81 % 81 % 996 hPa 0,0 l/m 0,0 km/h (0 Bft) - - 0,1 C 3,0 C
15.02.2011 07:00 3,3 C 3,1 C 82 % 81 % 996 hPa 0,0 l/m 0,0 km/h (0 Bft) - - 0,5 C 3,3 C
15.02.2011 08:00 3,6 C 3,6 C 83 % 82 % 996 hPa 0,0 l/m 0,0 km/h (0 Bft) - - 0,9 C 3,6 C
15.02.2011 09:00 4,4 C 4,3 C 83 % 82 % 995 hPa 0,0 l/m 0,0 km/h (0 Bft) - - 1,7 C 4,4 C
15.02.2011 10:00 5,1 C 5,1 C 71 % 81 % 995 hPa 0,0 l/m 0,0 km/h (0 Bft) - - 0,1 C 5,1 C
15.02.2011 11:00 6,1 C 6,1 C 52 % 75 % 994 hPa 0,0 l/m 0,0 km/h (0 Bft) - - -3,1 C 6,1 C
15.02.2011 12:00 6,6 C 6,6 C 43 % 59 % 993 hPa 0,0 l/m 0,0 km/h (0 Bft) - - -5,2 C 6,6 C
15.02.2011 13:00 5,9 C 6,1 C 48 % 58 % 992 hPa 0,0 l/m 0,0 km/h (0 Bft) - - -4,3 C 5,9 C
15.02.2011 14:00 5,6 C 5,7 C 59 % 65 % 992 hPa 0,4 l/m 0,0 km/h (0 Bft) - - -1,9 C 5,6 C
15.02.2011 15:00 5,8 C 5,9 C 60 % 65 % 991 hPa 0,4 l/m 0,0 km/h (0 Bft) - - -1,4 C 5,8 C
15.02.2011 16:00 6,0 C 6,2 C 55 % 63 % 991 hPa 0,0 l/m 0,0 km/h (0 Bft) - - -2,5 C 6,0 C
15.02.2011 17:00 5,7 C 5,9 C 55 % 62 % 991 hPa 0,4 l/m 0,0 km/h (0 Bft) - - -2,7 C 5,7 C
15.02.2011 18:00 5,7 C 5,8 C 50 % 62 % 991 hPa 0,0 l/m 0,0 km/h (0 Bft) - - -4,0 C 5,7 C
15.02.2011 19:00 5,8 C 5,8 C 47 % 60 % 992 hPa 0,0 l/m 0,0 km/h (0 Bft) - - -4,7 C 5,8 C
15.02.2011 20:00 5,4 C 5,4 C 50 % 62 % 992 hPa 0,0 l/m 0,0 km/h (0 Bft) - - -4,3 C 5,4 C
15.02.2011 21:00 5,2 C 5,3 C 53 % 65 % 992 hPa 0,0 l/m 0,0 km/h (0 Bft) - - -3,7 C 5,2 C
15.02.2011 22:00 5,6 C 5,6 C 51 % 64 % 992 hPa 0,0 l/m 0,0 km/h (0 Bft) - - -3,7 C 5,6 C
15.02.2011 23:00 5,3 C 5,3 C 53 % 63 % 992 hPa 0,0 l/m 0,0 km/h (0 Bft) - - -3,6 C 5,3 C
16.02.2011 00:00 5,0 C 5,1 C 66 % 69 % 992 hPa 0,4 l/m 0,0 km/h (0 Bft) - - -0,9 C 5,0 C
16.02.2011 01:00 5,3 C 5,4 C 62 % 68 % 992 hPa 0,0 l/m 0,0 km/h (0 Bft) - - -1,5 C 5,3 C
16.02.2011 02:00 5,4 C 5,4 C 57 % 66 % 993 hPa 0,0 l/m 0,0 km/h (0 Bft) - - -2,6 C 5,4 C
16.02.2011 03:00 5,1 C 5,0 C 59 % 67 % 993 hPa 0,0 l/m 0,0 km/h (0 Bft) - - -2,2 C 5,1 C
16.02.2011 04:00 4,3 C 4,0 C 62 % 70 % 992 hPa 0,0 l/m 0,0 km/h (0 Bft) - - -2,4 C 4,3 C
16.02.2011 05:00 2,8 C 2,5 C 63 % 70 % 993 hPa 0,0 l/m 0,0 km/h (0 Bft) - - -3,5 C 2,8 C
16.02.2011 06:00 3,2 C 3,0 C 70 % 73 % 993 hPa 0,0 l/m 0,0 km/h (0 Bft) - - -1,8 C 3,2 C
16.02.2011 07:00 3,9 C 3,7 C 71 % 74 % 993 hPa 0,0 l/m 0,0 km/h (0 Bft) - - -0,9 C 3,9 C
16.02.2011 08:00 4,3 C 4,1 C 72 % 74 % 993 hPa 0,0 l/m 0,0 km/h (0 Bft) - - -0,3 C 4,3 C
16.02.2011 09:00 5,3 C 5,2 C 71 % 74 % 994 hPa 0,0 l/m 0,0 km/h (0 Bft) - - 0,3 C 5,3 C
16.02.2011 10:00 6,3 C 7,1 C 66 % 65 % 994 hPa 0,0 l/m 0,0 km/h (0 Bft) - - 0,3 C 6,3 C
16.02.2011 11:00 7,3 C 8,3 C 49 % 51 % 994 hPa 0,0 l/m 0,0 km/h (0 Bft) - - -2,9 C 7,3 C
16.02.2011 12:00 8,4 C 11,4 C 38 % 42 % 993 hPa 0,0 l/m 0,0 km/h (0 Bft) - - -5,1 C 8,4 C
16.02.2011 13:00 15,6 C 20,8 C 20 % 20 % 993 hPa 0,0 l/m 0,0 km/h (0 Bft) - - -7,3 C 15,6 C
16.02.2011 14:00 15,0 C 17,6 C 20 % 24 % 992 hPa 0,0 l/m 0,0 km/h (0 Bft) - - -7,8 C 15,0 C
16.02.2011 15:00 16,3 C 15,6 C 20 % 20 % 992 hPa 0,0 l/m 0,0 km/h (0 Bft) - - -6,7 C 16,3 C
16.02.2011 16:00 13,8 C 11,8 C 20 % 30 % 992 hPa 0,0 l/m 0,0 km/h (0 Bft) - - -8,8 C 13,8 C
16.02.2011 17:00 10,4 C 9,8 C 23 % 39 % 992 hPa 0,0 l/m 0,0 km/h (0 Bft) - - -10,2 C 10,4 C
16.02.2011 18:00 8,5 C 8,2 C 33 % 48 % 992 hPa 0,0 l/m 0,0 km/h (0 Bft) - - -7,0 C 8,5 C
16.02.2011 19:00 6,9 C 6,6 C 38 % 53 % 992 hPa 0,0 l/m 0,0 km/h (0 Bft) - - -6,6 C 6,9 C
16.02.2011 20:00 5,3 C 4,6 C 43 % 60 % 992 hPa 0,0 l/m 0,0 km/h (0 Bft) - - -6,4 C 5,3 C
16.02.2011 21:00 3,6 C 2,8 C 47 % 63 % 993 hPa 0,0 l/m 0,0 km/h (0 Bft) - - -6,6 C 3,6 C
16.02.2011 22:00 1,9 C 1,4 C 52 % 67 % 993 hPa 0,0 l/m 0,0 km/h (0 Bft) - - -6,9 C 1,9 C
16.02.2011 23:00 1,0 C 0,6 C 57 % 69 % 993 hPa 0,0 l/m 0,0 km/h (0 Bft) - - -6,7 C 1,0 C
17.02.2011 00:00 0,3 C -0,3 C 58 % 69 % 993 hPa 0,0 l/m 0,0 km/h (0 Bft) - - -7,0 C 0,3 C
17.02.2011 01:00 -0,5 C -1,0 C 60 % 70 % 993 hPa 0,0 l/m 0,0 km/h (0 Bft) - - -7,4 C -0,5 C
17.02.2011 02:00 -0,9 C -1,2 C 62 % 72 % 993 hPa 0,0 l/m 0,0 km/h (0 Bft) - - -7,2 C -0,9 C
17.02.2011 03:00 -1,5 C -2,0 C 63 % 72 % 993 hPa 0,0 l/m 0,0 km/h (0 Bft) - - -7,7 C -1,5 C
17.02.2011 04:00 -1,8 C -2,3 C 65 % 73 % 993 hPa 0,0 l/m 0,0 km/h (0 Bft) - - -7,6 C -1,8 C
17.02.2011 05:00 -2,0 C -2,3 C 68 % 75 % 993 hPa 0,0 l/m 0,0 km/h (0 Bft) - - -7,1 C -2,0 C
17.02.2011 06:00 -2,0 C -2,3 C 70 % 77 % 994 hPa 0,0 l/m 0,0 km/h (0 Bft) - - -6,7 C -2,0 C
17.02.2011 07:00 -0,9 C -1,3 C 75 % 80 % 994 hPa 0,0 l/m 0,0 km/h (0 Bft) - - -4,9 C -0,9 C
17.02.2011 08:00 0,3 C -0,2 C 76 % 81 % 995 hPa 0,0 l/m 0,0 km/h (0 Bft) - - -3,5 C 0,3 C
17.02.2011 09:00 1,9 C 3,1 C 76 % 83 % 995 hPa 0,0 l/m 0,0 km/h (0 Bft) - - -1,9 C 1,9 C
17.02.2011 10:00 4,4 C 6,3 C 65 % 60 % 996 hPa 0,0 l/m 0,0 km/h (0 Bft) - - -1,8 C 4,4 C
17.02.2011 11:00 5,5 C 5,8 C 37 % 43 % 996 hPa 0,0 l/m 0,0 km/h (0 Bft) - - -8,0 C 5,5 C
17.02.2011 12:00 6,2 C 6,2 C 31 % 43 % 997 hPa 0,0 l/m 0,0 km/h (0 Bft) - - -9,9 C 6,2 C
17.02.2011 13:00 7,4 C 8,1 C 28 % 39 % 997 hPa 0,0 l/m 0,0 km/h (0 Bft) - - -10,1 C 7,4 C
17.02.2011 14:00 14,1 C 15,3 C 20 % 20 % 996 hPa 0,0 l/m 0,0 km/h (0 Bft) - - -8,5 C 14,1 C
17.02.2011 15:00 14,0 C 13,1 C 20 % 20 % 997 hPa 0,0 l/m 0,0 km/h (0 Bft) - - -8,6 C 14,0 C
17.02.2011 16:00 10,4 C 8,1 C 20 % 34 % 997 hPa 0,0 l/m 0,0 km/h (0 Bft) - - -11,5 C 10,4 C
17.02.2011 17:00 6,7 C 5,8 C 24 % 42 % 998 hPa 0,0 l/m 0,0 km/h (0 Bft) - - -12,8 C 6,7 C
17.02.2011 18:00 5,1 C 4,4 C 32 % 48 % 999 hPa 0,0 l/m 0,0 km/h (0 Bft) - - -10,3 C 5,1 C
17.02.2011 19:00 3,8 C 3,4 C 36 % 51 % 999 hPa 0,0 l/m 0,0 km/h (0 Bft) - - -10,0 C 3,8 C
17.02.2011 20:00 3,0 C 2,7 C 41 % 57 % 1000 hPa 0,0 l/m 0,0 km/h (0 Bft) - - -8,9 C 3,0 C
17.02.2011 21:00 3,2 C 2,7 C 42 % 59 % 1001 hPa 0,0 l/m 0,0 km/h (0 Bft) - - -8,6 C 3,2 C
17.02.2011 22:00 2,3 C 2,0 C 45 % 61 % 1001 hPa 0,0 l/m 0,0 km/h (0 Bft) - - -8,5 C 2,3 C
17.02.2011 23:00 2,4 C 2,0 C 47 % 64 % 1002 hPa 0,0 l/m 0,0 km/h (0 Bft) - - -7,9 C 2,4 C
18.02.2011 00:00 3,2 C 2,7 C 46 % 62 % 1003 hPa 0,0 l/m 0,0 km/h (0 Bft) - - -7,5 C 3,2 C
18.02.2011 01:00 3,2 C 2,7 C 45 % 60 % 1003 hPa 0,0 l/m 0,0 km/h (0 Bft) - - -7,6 C 3,2 C
18.02.2011 02:00 3,0 C 2,7 C 45 % 60 % 1003 hPa 0,0 l/m 0,0 km/h (0 Bft) - - -7,7 C 3,0 C
18.02.2011 03:00 2,8 C 2,5 C 45 % 60 % 1003 hPa 0,0 l/m 0,0 km/h (0 Bft) - - -7,9 C 2,8 C
18.02.2011 04:00 2,7 C 2,2 C 46 % 61 % 1004 hPa 0,0 l/m 0,0 km/h (0 Bft) - - -7,8 C 2,7 C
18.02.2011 05:00 2,5 C 2,2 C 46 % 60 % 1004 hPa 0,0 l/m 0,0 km/h (0 Bft) - - -8,0 C 2,5 C
18.02.2011 06:00 2,4 C 2,0 C 45 % 60 % 1005 hPa 0,0 l/m 0,0 km/h (0 Bft) - - -8,3 C 2,4 C
18.02.2011 07:00 2,3 C 2,0 C 46 % 61 % 1005 hPa 0,0 l/m 0,0 km/h (0 Bft) - - -8,2 C 2,3 C
18.02.2011 08:00 2,5 C 2,1 C 45 % 59 % 1006 hPa 0,0 l/m 0,0 km/h (0 Bft) - - -8,2 C 2,5 C
18.02.2011 09:00 2,7 C 2,5 C 44 % 58 % 1006 hPa 0,0 l/m 0,0 km/h (0 Bft) - - -8,4 C 2,7 C
18.02.2011 10:00 3,3 C 2,9 C 42 % 56 % 1007 hPa 0,0 l/m 0,0 km/h (0 Bft) - - -8,5 C 3,3 C
18.02.2011 11:00 3,8 C 3,6 C 39 % 52 % 1007 hPa 0,0 l/m 0,0 km/h (0 Bft) - - -9,1 C 3,8 C
18.02.2011 12:00 4,2 C 3,9 C 35 % 49 % 1008 hPa 0,0 l/m 0,0 km/h (0 Bft) - - -9,9 C 4,2 C
18.02.2011 13:00 4,5 C 4,1 C 35 % 47 % 1008 hPa 0,0 l/m 0,0 km/h (0 Bft) - - -9,6 C 4,5 C
Min-Datum _ 17.02.11 17.02.11 16.02.11 16.02.11 15.02.11 - 14.02.11 - 17.02.11 17.02.11
_ Min-Zeit 05:09 05:09 13:09 13:09 15:39 - 00:09 - 17:09 05:09
Minimum _ -2,0 C -2,5 C 20 % 20 % 991 hPa - 0,0 km/h (0 Bft) - -14,0 C -2,0 C
Max-Datum _ 16.02.11 16.02.11 15.02.11 17.02.11 18.02.11 14.02.11 14.02.11 - 15.02.11 16.02.11
_ Max-Zeit 14:09 14:09 08:39 09:39 11:39 04:39 00:09 - 09:39 14:09
Maximum _ 18,1 C 23,3 C 83 % 83 % 1008 hPa 276,5 l/m 0,0 km/h
- - (0 Bft)
- 1,8 C 18,1 C
Durchschnitt _ 4,5 C 4,4 C 53 % 62 % 997 hPa #335,2 l/m 0,0 km/h (0 Bft) - - -5,0 C 4,5 C
©2001-2010 Bettendroffer Claude